sensor_id;sensor_type;location;lat;lon;timestamp;pressure;altitude;pressure_sealevel;temperature;humidity
55468;BME280;41332;42.702;23.200;2023-08-06T15:08:36;92851.06;;;24.74;48.41
55468;BME280;41332;42.702;23.200;2023-08-06T15:11:02;92848.47;;;24.93;49.16
55468;BME280;41332;42.702;23.200;2023-08-06T15:13:28;92846.09;;;25.04;47.98
55468;BME280;41332;42.702;23.200;2023-08-06T15:15:54;92844.63;;;25.03;48.41
55468;BME280;41332;42.702;23.200;2023-08-06T15:18:20;92840.13;;;25.00;47.74
55468;BME280;41332;42.702;23.200;2023-08-06T15:20:45;92844.91;;;25.05;48.77
55468;BME280;41332;42.702;23.200;2023-08-06T15:23:10;92837.53;;;24.87;47.46
55468;BME280;41332;42.702;23.200;2023-08-06T15:25:36;92834.56;;;24.85;48.10
55468;BME280;41332;42.702;23.200;2023-08-06T15:28:01;92847.13;;;24.97;49.13
55468;BME280;41332;42.702;23.200;2023-08-06T15:30:27;92835.66;;;24.97;48.62
55468;BME280;41332;42.702;23.200;2023-08-06T15:32:52;92828.50;;;25.03;50.53
55468;BME280;41332;42.702;23.200;2023-08-06T15:35:17;92831.81;;;25.16;48.83
55468;BME280;41332;42.702;23.200;2023-08-06T15:37:43;92829.72;;;25.11;49.13
55468;BME280;41332;42.702;23.200;2023-08-06T15:40:09;92844.66;;;25.12;49.61
55468;BME280;41332;42.702;23.200;2023-08-06T15:42:35;92852.22;;;25.05;51.61
55468;BME280;41332;42.702;23.200;2023-08-06T15:45:00;92852.22;;;25.05;51.11
55468;BME280;41332;42.702;23.200;2023-08-06T15:47:27;92851.94;;;25.12;50.21
55468;BME280;41332;42.702;23.200;2023-08-06T15:49:52;92852.94;;;24.96;50.58
55468;BME280;41332;42.702;23.200;2023-08-06T15:52:18;92869.97;;;25.02;48.96
55468;BME280;41332;42.702;23.200;2023-08-06T15:54:43;92871.41;;;24.94;46.44
55468;BME280;41332;42.702;23.200;2023-08-06T15:57:09;92874.38;;;24.87;46.43
55468;BME280;41332;42.702;23.200;2023-08-06T15:59:34;92879.75;;;24.87;48.09
55468;BME280;41332;42.702;23.200;2023-08-06T16:02:00;92881.47;;;24.71;46.80
55468;BME280;41332;42.702;23.200;2023-08-06T16:04:30;92887.75;;;24.55;45.77
55468;BME280;41332;42.702;23.200;2023-08-06T16:06:56;92889.53;;;24.49;43.30
55468;BME280;41332;42.702;23.200;2023-08-06T16:09:21;92891.66;;;24.32;43.02
55468;BME280;41332;42.702;23.200;2023-08-06T16:11:48;92889.78;;;24.42;43.69
55468;BME280;41332;42.702;23.200;2023-08-06T16:14:14;92887.47;;;24.31;44.49
55468;BME280;41332;42.702;23.200;2023-08-06T16:16:40;92888.91;;;24.23;44.28
55468;BME280;41332;42.702;23.200;2023-08-06T16:19:07;92895.66;;;24.27;44.18
55468;BME280;41332;42.702;23.200;2023-08-06T16:21:33;92890.72;;;24.03;45.19
55468;BME280;41332;42.702;23.200;2023-08-06T16:23:59;92895.03;;;24.01;45.84
55468;BME280;41332;42.702;23.200;2023-08-06T16:26:24;92893.97;;;23.98;44.88
55468;BME280;41332;42.702;23.200;2023-08-06T16:28:49;92896.19;;;24.00;44.77
55468;BME280;41332;42.702;23.200;2023-08-06T16:31:15;92902.41;;;23.97;45.63
55468;BME280;41332;42.702;23.200;2023-08-06T16:33:40;92906.09;;;23.90;45.51
55468;BME280;41332;42.702;23.200;2023-08-06T16:36:07;92908.56;;;23.84;46.49
55468;BME280;41332;42.702;23.200;2023-08-06T16:38:33;92906.72;;;23.81;44.91
55468;BME280;41332;42.702;23.200;2023-08-06T16:40:58;92911.66;;;23.83;45.73
55468;BME280;41332;42.702;23.200;2023-08-06T16:43:24;92913.06;;;23.75;45.14
55468;BME280;41332;42.702;23.200;2023-08-06T16:45:53;92915.38;;;23.63;45.47
55468;BME280;41332;42.702;23.200;2023-08-06T16:48:19;92921.47;;;23.51;46.82
55468;BME280;41332;42.702;23.200;2023-08-06T16:50:52;92910.03;;;23.50;45.68
55468;BME280;41332;42.702;23.200;2023-08-06T16:53:17;92920.22;;;23.43;46.73
55468;BME280;41332;42.702;23.200;2023-08-06T16:55:42;92921.41;;;23.42;45.71
55468;BME280;41332;42.702;23.200;2023-08-06T16:58:08;92938.97;;;23.43;46.07
55468;BME280;41332;42.702;23.200;2023-08-06T17:00:33;92939.38;;;23.41;46.34
55468;BME280;41332;42.702;23.200;2023-08-06T17:02:58;92939.19;;;23.35;47.55
55468;BME280;41332;42.702;23.200;2023-08-06T17:05:24;92939.19;;;23.35;46.68
55468;BME280;41332;42.702;23.200;2023-08-06T17:07:50;92949.38;;;23.28;47.40
55468;BME280;41332;42.702;23.200;2023-08-06T17:10:17;92952.78;;;23.15;45.57
55468;BME280;41332;42.702;23.200;2023-08-06T17:12:46;92955.03;;;23.17;46.94
55468;BME280;41332;42.702;23.200;2023-08-06T17:15:11;92964.47;;;23.21;46.08
55468;BME280;41332;42.702;23.200;2023-08-06T17:17:36;92956.09;;;23.07;45.51
55468;BME280;41332;42.702;23.200;2023-08-06T17:20:02;92957.16;;;23.09;45.01
55468;BME280;41332;42.702;23.200;2023-08-06T17:22:28;92966.78;;;23.07;46.13
55468;BME280;41332;42.702;23.200;2023-08-06T17:24:53;92969.13;;;23.04;44.49
55468;BME280;41332;42.702;23.200;2023-08-06T17:27:18;92975.78;;;23.00;45.29
55468;BME280;41332;42.702;23.200;2023-08-06T17:29:44;92971.06;;;22.91;45.48
55468;BME280;41332;42.702;23.200;2023-08-06T17:32:09;92966.88;;;22.90;45.34
55468;BME280;41332;42.702;23.200;2023-08-06T17:34:36;92986.03;;;22.88;45.37
55468;BME280;41332;42.702;23.200;2023-08-06T17:37:01;92992.75;;;22.80;45.66
55468;BME280;41332;42.702;23.200;2023-08-06T17:39:30;92987.63;;;22.73;45.24
55468;BME280;41332;42.702;23.200;2023-08-06T17:41:56;92999.38;;;22.76;45.37
55468;BME280;41332;42.702;23.200;2023-08-06T17:44:21;92987.91;;;22.75;45.53
55468;BME280;41332;42.702;23.200;2023-08-06T17:46:47;92996.16;;;22.68;45.74
55468;BME280;41332;42.702;23.200;2023-08-06T17:49:12;92989.47;;;22.60;45.83
55468;BME280;41332;42.702;23.200;2023-08-06T17:51:37;93002.56;;;22.58;45.80
55468;BME280;41332;42.702;23.200;2023-08-06T17:54:03;93001.66;;;22.48;46.65
55468;BME280;41332;42.702;23.200;2023-08-06T17:56:28;93012.03;;;22.46;46.99
55468;BME280;41332;42.702;23.200;2023-08-06T17:58:53;93011.59;;;22.47;47.39
55468;BME280;41332;42.702;23.200;2023-08-06T18:01:19;93023.72;;;22.35;46.37
55468;BME280;41332;42.702;23.200;2023-08-06T18:03:44;93026.00;;;22.37;46.71
55468;BME280;41332;42.702;23.200;2023-08-06T18:06:12;93021.75;;;22.39;46.91
55468;BME280;41332;42.702;23.200;2023-08-06T18:08:37;93023.16;;;22.28;47.37
55468;BME280;41332;42.702;23.200;2023-08-06T18:11:03;93047.88;;;22.32;47.23
55468;BME280;41332;42.702;23.200;2023-08-06T18:13:28;93043.97;;;22.20;48.05
55468;BME280;41332;42.702;23.200;2023-08-06T18:15:54;93049.97;;;22.24;48.08
55468;BME280;41332;42.702;23.200;2023-08-06T18:18:19;93054.66;;;22.20;48.41
55468;BME280;41332;42.702;23.200;2023-08-06T18:20:44;93046.22;;;22.21;48.31
55468;BME280;41332;42.702;23.200;2023-08-06T18:23:10;93056.19;;;22.21;48.83
55468;BME280;41332;42.702;23.200;2023-08-06T18:25:35;93060.84;;;22.17;48.53
55468;BME280;41332;42.702;23.200;2023-08-06T18:28:01;93063.44;;;22.20;48.70
55468;BME280;41332;42.702;23.200;2023-08-06T18:30:26;93070.38;;;22.18;49.13
55468;BME280;41332;42.702;23.200;2023-08-06T18:32:52;93070.94;;;22.09;49.76
55468;BME280;41332;42.702;23.200;2023-08-06T18:35:17;93072.53;;;22.06;49.02
55468;BME280;41332;42.702;23.200;2023-08-06T18:37:42;93075.06;;;22.14;49.58
55468;BME280;41332;42.702;23.200;2023-08-06T18:40:09;93080.81;;;22.12;49.16
55468;BME280;41332;42.702;23.200;2023-08-06T18:42:35;93084.56;;;21.98;50.05
55468;BME280;41332;42.702;23.200;2023-08-06T18:45:01;93079.97;;;21.99;49.73
55468;BME280;41332;42.702;23.200;2023-08-06T18:47:27;93077.28;;;21.99;50.32
55468;BME280;41332;42.702;23.200;2023-08-06T18:49:52;93078.72;;;22.03;50.51
55468;BME280;41332;42.702;23.200;2023-08-06T18:52:18;93074.63;;;21.99;50.66
55468;BME280;41332;42.702;23.200;2023-08-06T18:54:44;93091.00;;;22.01;50.08
55468;BME280;41332;42.702;23.200;2023-08-06T18:57:10;93096.69;;;22.03;49.59
55468;BME280;41332;42.702;23.200;2023-08-06T18:59:35;93099.03;;;22.01;49.77
55468;BME280;41332;42.702;23.200;2023-08-06T19:02:03;93098.50;;;21.89;50.68
55468;BME280;41332;42.702;23.200;2023-08-06T19:04:30;93097.59;;;21.80;49.83
55468;BME280;41332;42.702;23.200;2023-08-06T19:06:56;93096.16;;;21.75;49.90
55468;BME280;41332;42.702;23.200;2023-08-06T19:09:21;93091.81;;;21.65;48.63
55468;BME280;41332;42.702;23.200;2023-08-06T19:11:47;93089.91;;;21.65;48.74
55468;BME280;41332;42.702;23.200;2023-08-06T19:14:13;93097.22;;;21.61;49.24
55468;BME280;41332;42.702;23.200;2023-08-06T19:16:38;93098.16;;;21.51;49.70
55468;BME280;41332;42.702;23.200;2023-08-06T19:19:14;93118.78;;;21.50;49.75
55468;BME280;41332;42.702;23.200;2023-08-06T19:21:40;93130.31;;;21.47;49.40
55468;BME280;41332;42.702;23.200;2023-08-06T19:24:06;93131.34;;;21.33;49.34
55468;BME280;41332;42.702;23.200;2023-08-06T19:26:31;93141.94;;;21.17;48.96
55468;BME280;41332;42.702;23.200;2023-08-06T19:28:56;93207.91;;;20.96;53.61
55468;BME280;41332;42.702;23.200;2023-08-06T19:31:23;93240.94;;;20.28;58.20
55468;BME280;41332;42.702;23.200;2023-08-06T19:33:48;93254.28;;;19.62;58.69
55468;BME280;41332;42.702;23.200;2023-08-06T19:36:14;93274.66;;;19.00;60.70
55468;BME280;41332;42.702;23.200;2023-08-06T19:38:41;93300.34;;;18.61;62.28
55468;BME280;41332;42.702;23.200;2023-08-06T19:41:08;93313.09;;;18.24;63.66
55468;BME280;41332;42.702;23.200;2023-08-06T19:43:36;93321.19;;;17.88;65.27
55468;BME280;41332;42.702;23.200;2023-08-06T19:46:02;93328.81;;;17.75;65.42
55468;BME280;41332;42.702;23.200;2023-08-06T19:48:28;93341.75;;;17.70;66.15
55468;BME280;41332;42.702;23.200;2023-08-06T19:50:55;93325.09;;;17.40;67.13
55468;BME280;41332;42.702;23.200;2023-08-06T19:53:30;93338.38;;;17.40;67.26
55468;BME280;41332;42.702;23.200;2023-08-06T19:56:00;93346.34;;;17.40;67.77
55468;BME280;41332;42.702;23.200;2023-08-06T19:58:29;93345.97;;;17.35;68.66
55468;BME280;41332;42.702;23.200;2023-08-06T20:00:55;93356.59;;;17.35;69.25
55468;BME280;41332;42.702;23.200;2023-08-06T20:03:22;93358.84;;;17.40;69.06
55468;BME280;41332;42.702;23.200;2023-08-06T20:05:48;93364.16;;;17.47;69.28
55468;BME280;41332;42.702;23.200;2023-08-06T20:08:14;93363.00;;;17.55;68.58
55468;BME280;41332;42.702;23.200;2023-08-06T20:10:39;93367.56;;;17.66;68.58
55468;BME280;41332;42.702;23.200;2023-08-06T20:13:07;93358.84;;;17.54;68.33
55468;BME280;41332;42.702;23.200;2023-08-06T20:15:36;93354.31;;;17.51;69.02
55468;BME280;41332;42.702;23.200;2023-08-06T20:18:01;93361.09;;;17.52;70.05
55468;BME280;41332;42.702;23.200;2023-08-06T20:20:26;93367.56;;;17.48;69.65
55468;BME280;41332;42.702;23.200;2023-08-06T20:22:52;93365.66;;;17.48;70.03
55468;BME280;41332;42.702;23.200;2023-08-06T20:25:17;93377.41;;;17.58;69.32
55468;BME280;41332;42.702;23.200;2023-08-06T20:27:45;93372.88;;;17.48;70.43
55468;BME280;41332;42.702;23.200;2023-08-06T20:30:11;93374.00;;;17.39;70.82
55468;BME280;41332;42.702;23.200;2023-08-06T20:32:37;93371.38;;;17.36;70.69
55468;BME280;41332;42.702;23.200;2023-08-06T20:35:02;93375.16;;;17.35;71.80
55468;BME280;41332;42.702;23.200;2023-08-06T20:37:28;93377.06;;;17.30;71.36
55468;BME280;41332;42.702;23.200;2023-08-06T20:39:53;93365.28;;;17.32;71.24
55468;BME280;41332;42.702;23.200;2023-08-06T20:42:18;93366.06;;;17.28;71.17
55468;BME280;41332;42.702;23.200;2023-08-06T20:44:44;93359.97;;;17.32;70.85
55468;BME280;41332;42.702;23.200;2023-08-06T20:47:10;93353.94;;;17.31;71.47
55468;BME280;41332;42.702;23.200;2023-08-06T20:49:36;93352.41;;;17.41;71.04
55468;BME280;41332;42.702;23.200;2023-08-06T20:52:01;93362.66;;;17.42;70.19
55468;BME280;41332;42.702;23.200;2023-08-06T20:54:26;93355.81;;;17.45;70.29
55468;BME280;41332;42.702;23.200;2023-08-06T20:56:52;93352.41;;;17.48;70.57
55468;BME280;41332;42.702;23.200;2023-08-06T20:59:17;93350.13;;;17.43;70.38
55468;BME280;41332;42.702;23.200;2023-08-06T21:01:42;93349.78;;;17.23;70.28
55468;BME280;41332;42.702;23.200;2023-08-06T21:04:08;93353.19;;;17.23;70.43
55468;BME280;41332;42.702;23.200;2023-08-06T21:06:35;93362.28;;;17.33;70.34
55468;BME280;41332;42.702;23.200;2023-08-06T21:09:01;93363.41;;;17.21;70.53
55468;BME280;41332;42.702;23.200;2023-08-06T21:11:26;93349.75;;;17.16;71.03
55468;BME280;41332;42.702;23.200;2023-08-06T21:13:52;93355.81;;;17.20;71.15
55468;BME280;41332;42.702;23.200;2023-08-06T21:16:17;93352.03;;;17.32;70.68
55468;BME280;41332;42.702;23.200;2023-08-06T21:18:42;93350.53;;;17.20;70.47
55468;BME280;41332;42.702;23.200;2023-08-06T21:21:08;93352.78;;;17.10;70.78
55468;BME280;41332;42.702;23.200;2023-08-06T21:23:33;93349.75;;;17.12;71.21
55468;BME280;41332;42.702;23.200;2023-08-06T21:26:05;93359.63;;;17.01;71.17
55468;BME280;41332;42.702;23.200;2023-08-06T21:28:32;93359.25;;;16.99;71.41
55468;BME280;41332;42.702;23.200;2023-08-06T21:31:00;93370.22;;;17.08;71.17
55468;BME280;41332;42.702;23.200;2023-08-06T21:33:29;93374.78;;;17.18;70.83
55468;BME280;41332;42.702;23.200;2023-08-06T21:35:56;93381.63;;;17.19;71.10
55468;BME280;41332;42.702;23.200;2023-08-06T21:38:24;93386.94;;;17.23;71.17
55468;BME280;41332;42.702;23.200;2023-08-06T21:40:49;93390.34;;;17.27;71.23
55468;BME280;41332;42.702;23.200;2023-08-06T21:43:15;93390.31;;;17.23;70.65
55468;BME280;41332;42.702;23.200;2023-08-06T21:45:40;93387.28;;;17.14;70.82
55468;BME280;41332;42.702;23.200;2023-08-06T21:48:06;93390.34;;;17.16;70.19
55468;BME280;41332;42.702;23.200;2023-08-06T21:50:33;93395.63;;;17.12;70.07
55468;BME280;41332;42.702;23.200;2023-08-06T21:52:58;93390.72;;;17.22;70.14
55468;BME280;41332;42.702;23.200;2023-08-06T21:55:24;93396.41;;;17.20;69.26
55468;BME280;41332;42.702;23.200;2023-08-06T21:57:49;93397.13;;;17.17;69.31
55468;BME280;41332;42.702;23.200;2023-08-06T22:00:15;93400.94;;;17.20;68.69
55468;BME280;41332;42.702;23.200;2023-08-06T22:02:43;93389.56;;;17.19;68.48
55468;BME280;41332;42.702;23.200;2023-08-06T22:05:09;93394.09;;;17.22;67.82
55468;BME280;41332;42.702;23.200;2023-08-06T22:07:34;93400.56;;;17.18;68.18
55468;BME280;41332;42.702;23.200;2023-08-06T22:10:00;93411.16;;;17.21;67.96
55468;BME280;41332;42.702;23.200;2023-08-06T22:12:25;93403.22;;;17.14;67.62
55468;BME280;41332;42.702;23.200;2023-08-06T22:14:50;93405.50;;;17.08;68.28
55468;BME280;41332;42.702;23.200;2023-08-06T22:17:16;93411.53;;;17.05;68.66
55468;BME280;41332;42.702;23.200;2023-08-06T22:19:41;93416.84;;;16.98;68.97
55468;BME280;41332;42.702;23.200;2023-08-06T22:22:07;93414.53;;;16.89;69.27
55468;BME280;41332;42.702;23.200;2023-08-06T22:24:32;93417.53;;;16.84;69.38
55468;BME280;41332;42.702;23.200;2023-08-06T22:26:57;93420.94;;;16.77;69.94
55468;BME280;41332;42.702;23.200;2023-08-06T22:29:23;93422.09;;;16.80;69.93
55468;BME280;41332;42.702;23.200;2023-08-06T22:31:48;93432.25;;;16.71;70.25
55468;BME280;41332;42.702;23.200;2023-08-06T22:34:13;93425.47;;;16.70;70.16
55468;BME280;41332;42.702;23.200;2023-08-06T22:36:39;93424.25;;;16.53;70.96
55468;BME280;41332;42.702;23.200;2023-08-06T22:39:04;93423.88;;;16.51;70.34
55468;BME280;41332;42.702;23.200;2023-08-06T22:41:29;93429.59;;;16.63;70.04
55468;BME280;41332;42.702;23.200;2023-08-06T22:43:55;93426.19;;;16.67;70.24
55468;BME280;41332;42.702;23.200;2023-08-06T22:46:20;93420.91;;;16.67;70.17
55468;BME280;41332;42.702;23.200;2023-08-06T22:48:47;93429.25;;;16.72;70.13
55468;BME280;41332;42.702;23.200;2023-08-06T22:51:12;93423.94;;;16.76;69.87
55468;BME280;41332;42.702;23.200;2023-08-06T22:53:38;93414.47;;;16.71;70.20
55468;BME280;41332;42.702;23.200;2023-08-06T22:56:03;93431.56;;;16.77;69.75
55468;BME280;41332;42.702;23.200;2023-08-06T22:58:30;93425.47;;;16.70;69.79
55468;BME280;41332;42.702;23.200;2023-08-06T23:00:55;93428.88;;;16.70;69.28
55468;BME280;41332;42.702;23.200;2023-08-06T23:03:22;93418.19;;;16.52;69.88
55468;BME280;41332;42.702;23.200;2023-08-06T23:05:47;93423.47;;;16.38;70.14
55468;BME280;41332;42.702;23.200;2023-08-06T23:08:12;93419.34;;;16.47;70.71
55468;BME280;41332;42.702;23.200;2023-08-06T23:10:38;93423.06;;;16.36;70.92
55468;BME280;41332;42.702;23.200;2023-08-06T23:13:04;93415.84;;;16.29;71.28
55468;BME280;41332;42.702;23.200;2023-08-06T23:15:30;93416.22;;;16.27;72.18
55468;BME280;41332;42.702;23.200;2023-08-06T23:17:56;93423.84;;;16.36;71.95
55468;BME280;41332;42.702;23.200;2023-08-06T23:20:21;93419.28;;;16.37;71.96
55468;BME280;41332;42.702;23.200;2023-08-06T23:22:47;93412.81;;;16.30;71.74
55468;BME280;41332;42.702;23.200;2023-08-06T23:25:12;93415.50;;;16.34;71.59
55468;BME280;41332;42.702;23.200;2023-08-06T23:27:37;93415.50;;;16.34;72.13
55468;BME280;41332;42.702;23.200;2023-08-06T23:30:04;93420.75;;;16.30;72.20
55468;BME280;41332;42.702;23.200;2023-08-06T23:32:30;93413.56;;;16.27;72.64
55468;BME280;41332;42.702;23.200;2023-08-06T23:34:56;93423.03;;;16.28;72.80
55468;BME280;41332;42.702;23.200;2023-08-06T23:37:22;93410.09;;;16.16;72.47
55468;BME280;41332;42.702;23.200;2023-08-06T23:39:47;93426.41;;;16.25;72.40
55468;BME280;41332;42.702;23.200;2023-08-06T23:42:18;93423.03;;;16.25;72.67
55468;BME280;41332;42.702;23.200;2023-08-06T23:44:43;93438.19;;;16.31;72.31
55468;BME280;41332;42.702;23.200;2023-08-06T23:47:09;93435.91;;;16.26;72.55
55468;BME280;41332;42.702;23.200;2023-08-06T23:49:34;93434.38;;;16.25;72.34
55468;BME280;41332;42.702;23.200;2023-08-06T23:51:59;93432.50;;;16.26;72.44
55468;BME280;41332;42.702;23.200;2023-08-06T23:54:25;93427.56;;;16.28;72.18
55468;BME280;41332;42.702;23.200;2023-08-06T23:56:50;93429.44;;;16.24;72.02
55468;BME280;41332;42.702;23.200;2023-08-06T23:59:15;93437.00;;;16.18;72.63
